San Leandro, CA

4:23 PM PST on November 22, 2014 (GMT -0800)
Metro Oakland International | Change Station
CLOSE
Current Station
Airport
Location: Oakland,
Elevation: 7 ft
Nearby Weather Stations

Elev 7 ft 37.72 °N, 122.23 °W | Updated 30 minutes ago

Partly Cloudy
Partly Cloudy
63 °F
Feels Like 63 °F
N
14
Wind Variable Wind from WNW

Today
High -- | Low -- °F
--% Chance of Precip.
Yesterday
High -- | Low -- °F
Precip. -- in
6:56 AM 4:53 PM
New Moon, 0% visible
Pressure 30.14 in
Visibility 10.0 miles
Clouds Few 1400 ft
Scattered Clouds 3000 ft
Mostly Cloudy 18000 ft
Dew Point 55 °F
Humidity 75%
Rainfall 0.26 in
Snow Depth Not available.
UV 0 out of 12
Pollen .40 out of 12
Air Quality Not available.
Flu Activity Not available.
METAR KOAK 222353Z 29012KT 10SM FEW014 SCT030 BKN180 17/13 A3013 RMK AO2 SLP204 60000 T01720128 10183 20167 53006

More Conditions Fewer Conditions

Pressure 30.14 in
Visibility 10.0 miles
Clouds Few 1400 ft
Scattered Clouds 3000 ft
Mostly Cloudy 18000 ft
Dew Point 55 °F
Humidity 75%
Rainfall 0.26 in
Snow Depth Not available.
UV 0 out of 12
Pollen .40 out of 12
Air Quality Not available.
Flu Activity Not available.
METAR KOAK 222353Z 29012KT 10SM FEW014 SCT030 BKN180 17/13 A3013 RMK AO2 SLP204 60000 T01720128 10183 20167 53006

More Conditions Fewer Conditions

10-Day Weather Forecast

Almanac

Astronomy

Nov. 22, 2014 Rise Set
Actual Time
Civil Twilight
Nautical Twilight
Astronomical Twilight
Moon
Length of Visible Light
Length of Day
Tomorrow will be .
, % of the Moon is Illuminated

Today's Extremes

State Highs State Lows

Community

WunderPhotos

Upload Photos

1,772,932 photos uploaded!

WunderBlogs® & News

Nearby

Air Quality

  Air Quality AQ Index Pollutant
Not available.

Snow Depth

Station Depth Elevation

Earthquake Activity

City Distance Mag. Time & Date
Minimum magnitude displayed is 2.5.

Coastal Water Temperatures

Place Temperature

Nearby Weather Stations